sensor_id;sensor_type;location;lat;lon;timestamp;temperature;humidity
73112;HTU21D;61301;51.956;5.876;2023-11-19T00:00:48;18.25;65.66
73112;HTU21D;61301;51.956;5.876;2023-11-19T00:03:13;18.26;65.69
73112;HTU21D;61301;51.956;5.876;2023-11-19T00:05:39;18.30;65.52
73112;HTU21D;61301;51.956;5.876;2023-11-19T00:08:06;18.33;65.40
73112;HTU21D;61301;51.956;5.876;2023-11-19T00:10:32;18.34;65.44
73112;HTU21D;61301;51.956;5.876;2023-11-19T00:12:58;18.32;65.50
73112;HTU21D;61301;51.956;5.876;2023-11-19T00:15:24;18.38;65.45
73112;HTU21D;61301;51.956;5.876;2023-11-19T00:17:51;18.37;65.40
73112;HTU21D;61301;51.956;5.876;2023-11-19T00:20:18;18.42;65.24
73112;HTU21D;61301;51.956;5.876;2023-11-19T00:22:45;18.39;65.22
73112;HTU21D;61301;51.956;5.876;2023-11-19T00:25:14;18.42;65.14
73112;HTU21D;61301;51.956;5.876;2023-11-19T00:27:40;18.43;65.07
73112;HTU21D;61301;51.956;5.876;2023-11-19T00:30:06;18.46;64.94
73112;HTU21D;61301;51.956;5.876;2023-11-19T00:32:33;18.43;65.02
73112;HTU21D;61301;51.956;5.876;2023-11-19T00:35:00;18.47;64.88
73112;HTU21D;61301;51.956;5.876;2023-11-19T00:37:26;18.43;64.99
73112;HTU21D;61301;51.956;5.876;2023-11-19T00:39:52;18.48;64.81
73112;HTU21D;61301;51.956;5.876;2023-11-19T00:42:18;18.51;64.54
73112;HTU21D;61301;51.956;5.876;2023-11-19T00:44:44;18.52;64.56
73112;HTU21D;61301;51.956;5.876;2023-11-19T00:47:12;18.53;64.50
73112;HTU21D;61301;51.956;5.876;2023-11-19T00:49:38;18.56;64.41
73112;HTU21D;61301;51.956;5.876;2023-11-19T00:52:04;18.52;64.48
73112;HTU21D;61301;51.956;5.876;2023-11-19T00:54:30;18.55;64.30
73112;HTU21D;61301;51.956;5.876;2023-11-19T00:56:56;18.53;64.29
73112;HTU21D;61301;51.956;5.876;2023-11-19T00:59:22;18.50;64.39
73112;HTU21D;61301;51.956;5.876;2023-11-19T01:01:48;18.51;64.30
73112;HTU21D;61301;51.956;5.876;2023-11-19T01:04:15;18.55;64.19
73112;HTU21D;61301;51.956;5.876;2023-11-19T01:06:44;18.57;64.11
73112;HTU21D;61301;51.956;5.876;2023-11-19T01:09:10;18.55;64.04
73112;HTU21D;61301;51.956;5.876;2023-11-19T01:11:36;18.56;64.10
73112;HTU21D;61301;51.956;5.876;2023-11-19T01:14:02;18.59;63.96
73112;HTU21D;61301;51.956;5.876;2023-11-19T01:16:28;18.63;63.83
73112;HTU21D;61301;51.956;5.876;2023-11-19T01:18:54;18.63;63.78
73112;HTU21D;61301;51.956;5.876;2023-11-19T01:21:20;18.65;63.70
73112;HTU21D;61301;51.956;5.876;2023-11-19T01:23:48;18.65;63.65
73112;HTU21D;61301;51.956;5.876;2023-11-19T01:26:14;18.68;63.55
73112;HTU21D;61301;51.956;5.876;2023-11-19T01:28:40;18.65;63.50
73112;HTU21D;61301;51.956;5.876;2023-11-19T01:31:11;18.65;63.46
73112;HTU21D;61301;51.956;5.876;2023-11-19T01:33:37;18.66;63.40
73112;HTU21D;61301;51.956;5.876;2023-11-19T01:36:03;18.68;63.35
73112;HTU21D;61301;51.956;5.876;2023-11-19T01:38:30;18.70;63.10
73112;HTU21D;61301;51.956;5.876;2023-11-19T01:40:57;18.70;62.98
73112;HTU21D;61301;51.956;5.876;2023-11-19T01:43:39;18.81;62.71
73112;HTU21D;61301;51.956;5.876;2023-11-19T01:46:08;18.74;62.70
73112;HTU21D;61301;51.956;5.876;2023-11-19T01:48:41;18.74;62.76
73112;HTU21D;61301;51.956;5.876;2023-11-19T01:51:08;18.69;62.73
73112;HTU21D;61301;51.956;5.876;2023-11-19T01:53:36;18.73;62.68
73112;HTU21D;61301;51.956;5.876;2023-11-19T01:56:04;18.71;62.60
73112;HTU21D;61301;51.956;5.876;2023-11-19T01:58:32;18.70;62.56
73112;HTU21D;61301;51.956;5.876;2023-11-19T02:00:58;18.68;62.50
73112;HTU21D;61301;51.956;5.876;2023-11-19T02:03:24;18.70;62.46
73112;HTU21D;61301;51.956;5.876;2023-11-19T02:05:52;18.74;62.18
73112;HTU21D;61301;51.956;5.876;2023-11-19T02:08:19;18.71;62.18
73112;HTU21D;61301;51.956;5.876;2023-11-19T02:10:46;18.67;62.18
73112;HTU21D;61301;51.956;5.876;2023-11-19T02:13:12;18.64;62.20
73112;HTU21D;61301;51.956;5.876;2023-11-19T02:15:40;18.67;62.14
73112;HTU21D;61301;51.956;5.876;2023-11-19T02:18:26;18.73;61.67
73112;HTU21D;61301;51.956;5.876;2023-11-19T02:20:57;18.71;61.79
73112;HTU21D;61301;51.956;5.876;2023-11-19T02:23:27;18.72;61.67
73112;HTU21D;61301;51.956;5.876;2023-11-19T02:29:07;18.65;61.76
73112;HTU21D;61301;51.956;5.876;2023-11-19T02:31:33;18.62;61.67
73112;HTU21D;61301;51.956;5.876;2023-11-19T02:34:00;18.61;61.54
73112;HTU21D;61301;51.956;5.876;2023-11-19T02:36:28;18.61;61.43
73112;HTU21D;61301;51.956;5.876;2023-11-19T02:38:54;18.61;61.34
73112;HTU21D;61301;51.956;5.876;2023-11-19T02:41:20;18.59;61.40
73112;HTU21D;61301;51.956;5.876;2023-11-19T02:43:46;18.63;61.27
73112;HTU21D;61301;51.956;5.876;2023-11-19T02:46:14;18.56;61.28
73112;HTU21D;61301;51.956;5.876;2023-11-19T02:48:41;18.52;61.20
73112;HTU21D;61301;51.956;5.876;2023-11-19T02:51:07;18.52;61.16
73112;HTU21D;61301;51.956;5.876;2023-11-19T02:53:36;18.50;60.86
73112;HTU21D;61301;51.956;5.876;2023-11-19T02:56:06;18.54;60.54
73112;HTU21D;61301;51.956;5.876;2023-11-19T02:58:43;18.55;60.50
73112;HTU21D;61301;51.956;5.876;2023-11-19T03:01:11;18.50;60.47
73112;HTU21D;61301;51.956;5.876;2023-11-19T03:03:49;18.44;60.67
73112;HTU21D;61301;51.956;5.876;2023-11-19T03:06:20;18.44;60.59
73112;HTU21D;61301;51.956;5.876;2023-11-19T03:08:47;18.36;60.38
73112;HTU21D;61301;51.956;5.876;2023-11-19T03:11:14;18.32;60.41
73112;HTU21D;61301;51.956;5.876;2023-11-19T03:13:40;18.32;60.38
73112;HTU21D;61301;51.956;5.876;2023-11-19T03:16:07;18.23;60.50
73112;HTU21D;61301;51.956;5.876;2023-11-19T03:18:33;18.19;60.54
73112;HTU21D;61301;51.956;5.876;2023-11-19T03:20:59;18.12;60.80
73112;HTU21D;61301;51.956;5.876;2023-11-19T03:23:25;18.09;60.81
73112;HTU21D;61301;51.956;5.876;2023-11-19T03:25:54;17.99;60.93
73112;HTU21D;61301;51.956;5.876;2023-11-19T03:28:21;17.94;60.93
73112;HTU21D;61301;51.956;5.876;2023-11-19T03:30:47;17.98;60.79
73112;HTU21D;61301;51.956;5.876;2023-11-19T03:33:13;17.97;60.77
73112;HTU21D;61301;51.956;5.876;2023-11-19T03:35:39;17.95;60.76
73112;HTU21D;61301;51.956;5.876;2023-11-19T03:38:07;17.87;60.85
73112;HTU21D;61301;51.956;5.876;2023-11-19T03:40:33;17.82;60.96
73112;HTU21D;61301;51.956;5.876;2023-11-19T03:42:59;17.81;60.82
73112;HTU21D;61301;51.956;5.876;2023-11-19T03:45:25;17.75;60.90
73112;HTU21D;61301;51.956;5.876;2023-11-19T03:47:51;17.72;61.01
73112;HTU21D;61301;51.956;5.876;2023-11-19T03:50:17;17.68;61.05
73112;HTU21D;61301;51.956;5.876;2023-11-19T03:52:46;17.64;60.96
73112;HTU21D;61301;51.956;5.876;2023-11-19T03:55:12;17.61;61.08
73112;HTU21D;61301;51.956;5.876;2023-11-19T03:57:39;17.58;60.97
73112;HTU21D;61301;51.956;5.876;2023-11-19T04:00:05;17.53;60.99
73112;HTU21D;61301;51.956;5.876;2023-11-19T04:02:40;17.48;60.94
73112;HTU21D;61301;51.956;5.876;2023-11-19T04:05:07;17.43;61.00
73112;HTU21D;61301;51.956;5.876;2023-11-19T04:07:33;17.35;61.08
73112;HTU21D;61301;51.956;5.876;2023-11-19T04:09:59;17.30;61.21
73112;HTU21D;61301;51.956;5.876;2023-11-19T04:12:25;17.30;61.14
73112;HTU21D;61301;51.956;5.876;2023-11-19T04:14:52;17.25;61.12
73112;HTU21D;61301;51.956;5.876;2023-11-19T04:17:18;17.21;61.04
73112;HTU21D;61301;51.956;5.876;2023-11-19T04:19:44;17.18;60.95
73112;HTU21D;61301;51.956;5.876;2023-11-19T04:22:10;17.17;60.79
73112;HTU21D;61301;51.956;5.876;2023-11-19T04:24:36;17.11;60.73
73112;HTU21D;61301;51.956;5.876;2023-11-19T04:27:05;17.06;60.86
73112;HTU21D;61301;51.956;5.876;2023-11-19T04:29:32;17.07;60.70
73112;HTU21D;61301;51.956;5.876;2023-11-19T04:31:58;17.06;60.59
73112;HTU21D;61301;51.956;5.876;2023-11-19T04:34:24;17.04;60.40
73112;HTU21D;61301;51.956;5.876;2023-11-19T04:36:51;17.05;60.30
73112;HTU21D;61301;51.956;5.876;2023-11-19T04:39:17;17.07;60.10
73112;HTU21D;61301;51.956;5.876;2023-11-19T04:41:51;17.05;60.08
73112;HTU21D;61301;51.956;5.876;2023-11-19T04:44:20;16.98;60.11
73112;HTU21D;61301;51.956;5.876;2023-11-19T04:46:46;16.91;60.30
73112;HTU21D;61301;51.956;5.876;2023-11-19T04:49:13;16.98;60.02
73112;HTU21D;61301;51.956;5.876;2023-11-19T04:51:40;16.94;59.90
73112;HTU21D;61301;51.956;5.876;2023-11-19T04:54:10;17.01;59.71
73112;HTU21D;61301;51.956;5.876;2023-11-19T04:56:36;16.94;59.91
73112;HTU21D;61301;51.956;5.876;2023-11-19T04:59:06;16.92;59.89
73112;HTU21D;61301;51.956;5.876;2023-11-19T05:01:33;17.07;59.70
73112;HTU21D;61301;51.956;5.876;2023-11-19T05:03:59;17.11;59.28
73112;HTU21D;61301;51.956;5.876;2023-11-19T05:06:28;17.11;59.22
73112;HTU21D;61301;51.956;5.876;2023-11-19T05:08:56;17.08;59.46
73112;HTU21D;61301;51.956;5.876;2023-11-19T05:11:22;16.96;59.94
73112;HTU21D;61301;51.956;5.876;2023-11-19T05:13:48;16.91;60.04
73112;HTU21D;61301;51.956;5.876;2023-11-19T05:16:14;16.90;60.07
73112;HTU21D;61301;51.956;5.876;2023-11-19T05:18:44;16.91;60.15
73112;HTU21D;61301;51.956;5.876;2023-11-19T05:21:10;16.87;60.22
73112;HTU21D;61301;51.956;5.876;2023-11-19T05:23:36;16.87;60.11
73112;HTU21D;61301;51.956;5.876;2023-11-19T05:26:03;16.87;60.00
73112;HTU21D;61301;51.956;5.876;2023-11-19T05:28:29;16.84;60.12
73112;HTU21D;61301;51.956;5.876;2023-11-19T05:30:55;16.85;60.22
73112;HTU21D;61301;51.956;5.876;2023-11-19T05:33:21;16.86;60.17
73112;HTU21D;61301;51.956;5.876;2023-11-19T05:35:51;16.89;60.10
73112;HTU21D;61301;51.956;5.876;2023-11-19T05:38:17;17.00;59.81
73112;HTU21D;61301;51.956;5.876;2023-11-19T05:40:43;17.09;59.32
73112;HTU21D;61301;51.956;5.876;2023-11-19T05:43:09;17.09;59.10
73112;HTU21D;61301;51.956;5.876;2023-11-19T05:45:35;17.04;59.18
73112;HTU21D;61301;51.956;5.876;2023-11-19T05:48:01;17.06;59.08
73112;HTU21D;61301;51.956;5.876;2023-11-19T05:50:30;17.03;59.32
73112;HTU21D;61301;51.956;5.876;2023-11-19T05:52:56;16.87;59.69
73112;HTU21D;61301;51.956;5.876;2023-11-19T05:55:22;16.87;59.68
73112;HTU21D;61301;51.956;5.876;2023-11-19T05:57:49;16.79;59.77
73112;HTU21D;61301;51.956;5.876;2023-11-19T06:00:17;16.71;59.80
73112;HTU21D;61301;51.956;5.876;2023-11-19T06:02:43;16.72;59.73
73112;HTU21D;61301;51.956;5.876;2023-11-19T06:05:09;16.74;59.79
73112;HTU21D;61301;51.956;5.876;2023-11-19T06:07:35;16.71;59.80
73112;HTU21D;61301;51.956;5.876;2023-11-19T06:10:02;16.78;59.65
73112;HTU21D;61301;51.956;5.876;2023-11-19T06:12:33;16.90;59.19
73112;HTU21D;61301;51.956;5.876;2023-11-19T06:15:05;16.93;59.23
73112;HTU21D;61301;51.956;5.876;2023-11-19T06:17:31;16.88;59.23
73112;HTU21D;61301;51.956;5.876;2023-11-19T06:19:57;16.90;59.17
73112;HTU21D;61301;51.956;5.876;2023-11-19T06:22:23;16.87;59.16
73112;HTU21D;61301;51.956;5.876;2023-11-19T06:24:49;16.87;59.13
73112;HTU21D;61301;51.956;5.876;2023-11-19T06:27:15;16.80;59.22
73112;HTU21D;61301;51.956;5.876;2023-11-19T06:29:44;16.85;59.16
73112;HTU21D;61301;51.956;5.876;2023-11-19T06:32:10;16.79;59.22
73112;HTU21D;61301;51.956;5.876;2023-11-19T06:34:36;16.82;59.17
73112;HTU21D;61301;51.956;5.876;2023-11-19T06:37:02;16.81;59.16
73112;HTU21D;61301;51.956;5.876;2023-11-19T06:39:30;16.77;59.25
73112;HTU21D;61301;51.956;5.876;2023-11-19T06:41:56;16.75;59.25
73112;HTU21D;61301;51.956;5.876;2023-11-19T06:44:22;16.69;59.41
73112;HTU21D;61301;51.956;5.876;2023-11-19T06:46:48;16.71;59.43
73112;HTU21D;61301;51.956;5.876;2023-11-19T06:49:14;16.67;59.51
73112;HTU21D;61301;51.956;5.876;2023-11-19T06:51:41;16.60;59.72
73112;HTU21D;61301;51.956;5.876;2023-11-19T06:54:08;16.64;59.54
73112;HTU21D;61301;51.956;5.876;2023-11-19T06:56:34;16.62;59.59
73112;HTU21D;61301;51.956;5.876;2023-11-19T06:59:00;16.66;59.57
73112;HTU21D;61301;51.956;5.876;2023-11-19T07:01:25;16.70;59.49
73112;HTU21D;61301;51.956;5.876;2023-11-19T07:03:52;16.66;59.54
73112;HTU21D;61301;51.956;5.876;2023-11-19T07:06:17;16.65;59.59
73112;HTU21D;61301;51.956;5.876;2023-11-19T07:08:44;16.67;59.64
73112;HTU21D;61301;51.956;5.876;2023-11-19T07:11:13;16.65;59.61
73112;HTU21D;61301;51.956;5.876;2023-11-19T07:13:42;16.49;60.19
73112;HTU21D;61301;51.956;5.876;2023-11-19T07:16:09;16.44;60.31
73112;HTU21D;61301;51.956;5.876;2023-11-19T07:18:38;16.45;60.20
73112;HTU21D;61301;51.956;5.876;2023-11-19T07:21:04;16.48;60.18
73112;HTU21D;61301;51.956;5.876;2023-11-19T07:23:30;16.49;60.10
73112;HTU21D;61301;51.956;5.876;2023-11-19T07:25:56;16.51;59.96
73112;HTU21D;61301;51.956;5.876;2023-11-19T07:28:23;16.65;59.56
73112;HTU21D;61301;51.956;5.876;2023-11-19T07:30:48;16.61;59.72
73112;HTU21D;61301;51.956;5.876;2023-11-19T07:33:15;16.65;59.58
73112;HTU21D;61301;51.956;5.876;2023-11-19T07:35:42;16.49;59.97
73112;HTU21D;61301;51.956;5.876;2023-11-19T07:38:09;16.49;60.12
73112;HTU21D;61301;51.956;5.876;2023-11-19T07:40:35;16.48;60.00
73112;HTU21D;61301;51.956;5.876;2023-11-19T07:43:01;16.52;59.88
73112;HTU21D;61301;51.956;5.876;2023-11-19T07:45:27;16.55;59.80
73112;HTU21D;61301;51.956;5.876;2023-11-19T07:47:53;16.50;59.86
73112;HTU21D;61301;51.956;5.876;2023-11-19T07:50:20;16.52;59.77
73112;HTU21D;61301;51.956;5.876;2023-11-19T07:52:46;16.52;59.80
73112;HTU21D;61301;51.956;5.876;2023-11-19T07:55:12;16.58;59.80
73112;HTU21D;61301;51.956;5.876;2023-11-19T07:57:38;16.58;59.78
73112;HTU21D;61301;51.956;5.876;2023-11-19T08:00:04;16.57;59.76
73112;HTU21D;61301;51.956;5.876;2023-11-19T08:02:38;16.65;59.66
73112;HTU21D;61301;51.956;5.876;2023-11-19T08:05:05;16.65;59.51
73112;HTU21D;61301;51.956;5.876;2023-11-19T08:07:31;16.65;59.61
73112;HTU21D;61301;51.956;5.876;2023-11-19T08:09:57;16.63;59.64
73112;HTU21D;61301;51.956;5.876;2023-11-19T08:12:23;16.69;59.69
73112;HTU21D;61301;51.956;5.876;2023-11-19T08:14:49;16.74;59.56
73112;HTU21D;61301;51.956;5.876;2023-11-19T08:17:15;16.80;59.40
73112;HTU21D;61301;51.956;5.876;2023-11-19T08:19:41;16.86;59.16
73112;HTU21D;61301;51.956;5.876;2023-11-19T08:22:07;16.91;59.15
73112;HTU21D;61301;51.956;5.876;2023-11-19T08:24:35;16.96;59.18
73112;HTU21D;61301;51.956;5.876;2023-11-19T08:27:01;16.98;58.99
73112;HTU21D;61301;51.956;5.876;2023-11-19T08:29:27;17.03;58.90
73112;HTU21D;61301;51.956;5.876;2023-11-19T08:31:54;17.09;58.67
73112;HTU21D;61301;51.956;5.876;2023-11-19T08:34:19;17.11;58.38
73112;HTU21D;61301;51.956;5.876;2023-11-19T08:36:46;17.13;58.29
73112;HTU21D;61301;51.956;5.876;2023-11-19T08:39:12;17.18;58.05
73112;HTU21D;61301;51.956;5.876;2023-11-19T08:41:39;17.20;57.95
73112;HTU21D;61301;51.956;5.876;2023-11-19T08:44:07;17.24;57.60
73112;HTU21D;61301;51.956;5.876;2023-11-19T08:46:33;17.22;57.65
73112;HTU21D;61301;51.956;5.876;2023-11-19T08:48:59;17.16;57.82
73112;HTU21D;61301;51.956;5.876;2023-11-19T08:51:26;17.15;58.03
73112;HTU21D;61301;51.956;5.876;2023-11-19T08:53:52;17.13;57.94
73112;HTU21D;61301;51.956;5.876;2023-11-19T08:56:18;17.16;58.00
73112;HTU21D;61301;51.956;5.876;2023-11-19T08:58:44;17.15;58.06
73112;HTU21D;61301;51.956;5.876;2023-11-19T09:01:10;17.17;57.86
73112;HTU21D;61301;51.956;5.876;2023-11-19T09:03:36;17.23;57.62
73112;HTU21D;61301;51.956;5.876;2023-11-19T09:06:02;17.28;57.45
73112;HTU21D;61301;51.956;5.876;2023-11-19T09:08:28;17.30;57.45
73112;HTU21D;61301;51.956;5.876;2023-11-19T09:10:55;17.33;57.42
73112;HTU21D;61301;51.956;5.876;2023-11-19T09:13:20;17.30;57.36
73112;HTU21D;61301;51.956;5.876;2023-11-19T09:15:47;17.29;57.36
73112;HTU21D;61301;51.956;5.876;2023-11-19T09:18:13;17.37;57.19
73112;HTU21D;61301;51.956;5.876;2023-11-19T09:20:39;17.38;57.00
73112;HTU21D;61301;51.956;5.876;2023-11-19T09:23:05;17.39;57.10
73112;HTU21D;61301;51.956;5.876;2023-11-19T09:25:32;17.39;57.03
73112;HTU21D;61301;51.956;5.876;2023-11-19T09:27:58;17.38;56.97
73112;HTU21D;61301;51.956;5.876;2023-11-19T09:30:24;17.44;57.01
73112;HTU21D;61301;51.956;5.876;2023-11-19T09:32:50;17.46;56.99
73112;HTU21D;61301;51.956;5.876;2023-11-19T09:35:16;17.51;56.93
73112;HTU21D;61301;51.956;5.876;2023-11-19T09:37:43;17.46;56.85
73112;HTU21D;61301;51.956;5.876;2023-11-19T09:40:09;17.53;56.92
73112;HTU21D;61301;51.956;5.876;2023-11-19T09:42:43;17.53;56.92
73112;HTU21D;61301;51.956;5.876;2023-11-19T09:45:14;17.58;57.09
73112;HTU21D;61301;51.956;5.876;2023-11-19T09:47:43;17.62;56.74
73112;HTU21D;61301;51.956;5.876;2023-11-19T09:50:18;17.64;56.70
73112;HTU21D;61301;51.956;5.876;2023-11-19T09:52:45;17.58;56.64
73112;HTU21D;61301;51.956;5.876;2023-11-19T09:55:12;17.56;56.78
73112;HTU21D;61301;51.956;5.876;2023-11-19T09:57:39;17.65;56.86
73112;HTU21D;61301;51.956;5.876;2023-11-19T10:00:07;17.69;56.77
73112;HTU21D;61301;51.956;5.876;2023-11-19T10:02:34;17.73;56.34
73112;HTU21D;61301;51.956;5.876;2023-11-19T10:05:06;17.83;56.35
73112;HTU21D;61301;51.956;5.876;2023-11-19T10:07:33;17.91;56.23
73112;HTU21D;61301;51.956;5.876;2023-11-19T10:10:01;17.87;56.20
73112;HTU21D;61301;51.956;5.876;2023-11-19T10:12:28;17.82;56.19
73112;HTU21D;61301;51.956;5.876;2023-11-19T10:14:58;17.87;56.10
73112;HTU21D;61301;51.956;5.876;2023-11-19T10:17:34;17.87;56.13
73112;HTU21D;61301;51.956;5.876;2023-11-19T10:20:00;17.82;56.26
73112;HTU21D;61301;51.956;5.876;2023-11-19T10:22:27;17.80;56.09
73112;HTU21D;61301;51.956;5.876;2023-11-19T10:24:53;17.84;56.00
73112;HTU21D;61301;51.956;5.876;2023-11-19T10:27:20;17.79;55.93
73112;HTU21D;61301;51.956;5.876;2023-11-19T10:29:46;17.81;56.07
73112;HTU21D;61301;51.956;5.876;2023-11-19T10:32:13;17.80;56.17
73112;HTU21D;61301;51.956;5.876;2023-11-19T10:34:40;17.84;55.85
73112;HTU21D;61301;51.956;5.876;2023-11-19T10:37:07;17.87;55.41
73112;HTU21D;61301;51.956;5.876;2023-11-19T10:39:52;17.94;54.97
73112;HTU21D;61301;51.956;5.876;2023-11-19T10:42:22;17.84;55.32
73112;HTU21D;61301;51.956;5.876;2023-11-19T10:44:48;17.89;55.43
73112;HTU21D;61301;51.956;5.876;2023-11-19T10:47:14;17.96;55.11
73112;HTU21D;61301;51.956;5.876;2023-11-19T10:49:43;18.07;54.31
73112;HTU21D;61301;51.956;5.876;2023-11-19T10:52:09;18.08;54.30
73112;HTU21D;61301;51.956;5.876;2023-11-19T10:54:35;18.24;54.42
73112;HTU21D;61301;51.956;5.876;2023-11-19T10:57:03;18.24;54.30
73112;HTU21D;61301;51.956;5.876;2023-11-19T10:59:31;18.28;54.12
73112;HTU21D;61301;51.956;5.876;2023-11-19T11:02:01;18.33;54.10
73112;HTU21D;61301;51.956;5.876;2023-11-19T11:04:31;18.28;53.82
73112;HTU21D;61301;51.956;5.876;2023-11-19T11:07:00;18.29;53.78
73112;HTU21D;61301;51.956;5.876;2023-11-19T11:09:27;18.43;53.72
73112;HTU21D;61301;51.956;5.876;2023-11-19T11:11:54;18.48;53.27
73112;HTU21D;61301;51.956;5.876;2023-11-19T11:14:21;18.55;53.33
73112;HTU21D;61301;51.956;5.876;2023-11-19T11:16:48;18.55;53.32
73112;HTU21D;61301;51.956;5.876;2023-11-19T11:19:16;18.54;53.28
73112;HTU21D;61301;51.956;5.876;2023-11-19T11:21:47;18.53;53.28
73112;HTU21D;61301;51.956;5.876;2023-11-19T11:27:48;18.58;51.75
73112;HTU21D;61301;51.956;5.876;2023-11-19T11:33:25;18.56;52.32
73112;HTU21D;61301;51.956;5.876;2023-11-19T11:36:11;18.58;52.16
73112;HTU21D;61301;51.956;5.876;2023-11-19T11:38:40;18.66;52.84
73112;HTU21D;61301;51.956;5.876;2023-11-19T11:41:21;18.77;52.35
73112;HTU21D;61301;51.956;5.876;2023-11-19T11:43:54;18.70;52.47
73112;HTU21D;61301;51.956;5.876;2023-11-19T11:49:05;18.71;52.54
73112;HTU21D;61301;51.956;5.876;2023-11-19T11:54:30;18.70;52.27
73112;HTU21D;61301;51.956;5.876;2023-11-19T11:57:04;18.57;52.65
73112;HTU21D;61301;51.956;5.876;2023-11-19T11:59:45;18.59;52.93
73112;HTU21D;61301;51.956;5.876;2023-11-19T12:02:13;18.48;53.10
73112;HTU21D;61301;51.956;5.876;2023-11-19T12:04:40;18.43;53.31
73112;HTU21D;61301;51.956;5.876;2023-11-19T12:07:08;18.40;53.52
73112;HTU21D;61301;51.956;5.876;2023-11-19T12:09:36;18.32;53.36
73112;HTU21D;61301;51.956;5.876;2023-11-19T12:20:04;18.28;52.49
73112;HTU21D;61301;51.956;5.876;2023-11-19T12:22:32;18.44;52.17
73112;HTU21D;61301;51.956;5.876;2023-11-19T12:24:58;18.61;51.76
73112;HTU21D;61301;51.956;5.876;2023-11-19T12:27:24;18.65;51.87
73112;HTU21D;61301;51.956;5.876;2023-11-19T12:29:52;18.80;51.72
73112;HTU21D;61301;51.956;5.876;2023-11-19T12:32:18;18.97;51.10
73112;HTU21D;61301;51.956;5.876;2023-11-19T12:34:45;18.95;50.68
73112;HTU21D;61301;51.956;5.876;2023-11-19T12:37:11;19.09;50.56
73112;HTU21D;61301;51.956;5.876;2023-11-19T12:39:37;19.29;50.29
73112;HTU21D;61301;51.956;5.876;2023-11-19T12:42:03;19.50;50.16
73112;HTU21D;61301;51.956;5.876;2023-11-19T12:44:29;19.68;49.13
73112;HTU21D;61301;51.956;5.876;2023-11-19T12:47:06;19.97;48.97
73112;HTU21D;61301;51.956;5.876;2023-11-19T12:49:35;19.83;48.21
73112;HTU21D;61301;51.956;5.876;2023-11-19T12:52:01;19.85;48.57
73112;HTU21D;61301;51.956;5.876;2023-11-19T12:54:36;19.65;48.02
73112;HTU21D;61301;51.956;5.876;2023-11-19T12:57:03;19.57;48.56
73112;HTU21D;61301;51.956;5.876;2023-11-19T12:59:34;19.45;49.06
73112;HTU21D;61301;51.956;5.876;2023-11-19T13:02:00;19.45;48.86
73112;HTU21D;61301;51.956;5.876;2023-11-19T13:04:29;19.54;49.22
73112;HTU21D;61301;51.956;5.876;2023-11-19T13:07:01;19.48;48.76
73112;HTU21D;61301;51.956;5.876;2023-11-19T13:09:29;19.54;48.70
73112;HTU21D;61301;51.956;5.876;2023-11-19T13:11:56;19.52;49.34
73112;HTU21D;61301;51.956;5.876;2023-11-19T13:14:23;19.46;49.12
73112;HTU21D;61301;51.956;5.876;2023-11-19T13:16:49;19.28;49.44
73112;HTU21D;61301;51.956;5.876;2023-11-19T13:19:15;19.26;49.91
73112;HTU21D;61301;51.956;5.876;2023-11-19T13:21:45;19.20;50.08
73112;HTU21D;61301;51.956;5.876;2023-11-19T13:24:13;19.14;50.39
73112;HTU21D;61301;51.956;5.876;2023-11-19T13:26:39;19.14;50.70
73112;HTU21D;61301;51.956;5.876;2023-11-19T13:29:05;19.06;50.82
73112;HTU21D;61301;51.956;5.876;2023-11-19T13:31:31;19.10;51.11
73112;HTU21D;61301;51.956;5.876;2023-11-19T13:33:57;19.12;51.38
73112;HTU21D;61301;51.956;5.876;2023-11-19T13:36:25;19.07;51.12
73112;HTU21D;61301;51.956;5.876;2023-11-19T13:38:52;18.99;51.24
73112;HTU21D;61301;51.956;5.876;2023-11-19T13:41:27;18.97;51.61
73112;HTU21D;61301;51.956;5.876;2023-11-19T13:43:53;18.93;51.56
73112;HTU21D;61301;51.956;5.876;2023-11-19T13:46:21;18.85;51.52
73112;HTU21D;61301;51.956;5.876;2023-11-19T13:48:47;18.86;51.95
73112;HTU21D;61301;51.956;5.876;2023-11-19T13:51:15;18.80;52.20
73112;HTU21D;61301;51.956;5.876;2023-11-19T13:53:41;18.71;52.62
73112;HTU21D;61301;51.956;5.876;2023-11-19T13:56:08;18.58;53.61
73112;HTU21D;61301;51.956;5.876;2023-11-19T13:58:34;18.47;54.65
73112;HTU21D;61301;51.956;5.876;2023-11-19T14:01:01;18.29;55.09
73112;HTU21D;61301;51.956;5.876;2023-11-19T14:03:27;18.29;55.20
73112;HTU21D;61301;51.956;5.876;2023-11-19T14:05:53;18.27;55.50
73112;HTU21D;61301;51.956;5.876;2023-11-19T14:08:21;18.20;56.01
73112;HTU21D;61301;51.956;5.876;2023-11-19T14:10:47;18.14;56.23
73112;HTU21D;61301;51.956;5.876;2023-11-19T14:13:13;18.11;56.42
73112;HTU21D;61301;51.956;5.876;2023-11-19T14:15:41;18.17;56.42
73112;HTU21D;61301;51.956;5.876;2023-11-19T14:18:08;18.32;56.41
73112;HTU21D;61301;51.956;5.876;2023-11-19T14:20:34;18.48;56.15
73112;HTU21D;61301;51.956;5.876;2023-11-19T14:23:01;18.63;55.97
73112;HTU21D;61301;51.956;5.876;2023-11-19T14:25:28;18.70;55.58
73112;HTU21D;61301;51.956;5.876;2023-11-19T14:27:54;18.70;55.31
73112;HTU21D;61301;51.956;5.876;2023-11-19T14:30:20;18.53;55.60
73112;HTU21D;61301;51.956;5.876;2023-11-19T14:32:46;18.48;55.78
73112;HTU21D;61301;51.956;5.876;2023-11-19T14:35:14;18.39;55.97
73112;HTU21D;61301;51.956;5.876;2023-11-19T14:37:40;18.36;55.87
73112;HTU21D;61301;51.956;5.876;2023-11-19T14:40:06;18.23;55.94
73112;HTU21D;61301;51.956;5.876;2023-11-19T14:42:35;18.21;55.90
73112;HTU21D;61301;51.956;5.876;2023-11-19T14:45:02;18.20;55.90
73112;HTU21D;61301;51.956;5.876;2023-11-19T14:47:28;18.12;55.98
73112;HTU21D;61301;51.956;5.876;2023-11-19T14:49:55;18.08;55.98
73112;HTU21D;61301;51.956;5.876;2023-11-19T14:52:21;17.98;56.09
73112;HTU21D;61301;51.956;5.876;2023-11-19T14:54:47;17.92;56.27
73112;HTU21D;61301;51.956;5.876;2023-11-19T14:57:13;17.87;56.36
73112;HTU21D;61301;51.956;5.876;2023-11-19T14:59:40;17.83;56.45
73112;HTU21D;61301;51.956;5.876;2023-11-19T15:02:06;17.78;56.58
73112;HTU21D;61301;51.956;5.876;2023-11-19T15:04:32;17.77;56.51
73112;HTU21D;61301;51.956;5.876;2023-11-19T15:06:59;17.74;56.62
73112;HTU21D;61301;51.956;5.876;2023-11-19T15:09:25;17.77;56.39
73112;HTU21D;61301;51.956;5.876;2023-11-19T15:11:55;17.75;56.36
73112;HTU21D;61301;51.956;5.876;2023-11-19T15:14:21;17.69;56.26
73112;HTU21D;61301;51.956;5.876;2023-11-19T15:16:47;17.66;56.34
73112;HTU21D;61301;51.956;5.876;2023-11-19T15:19:16;17.62;56.46
73112;HTU21D;61301;51.956;5.876;2023-11-19T15:21:42;17.60;56.46
73112;HTU21D;61301;51.956;5.876;2023-11-19T15:24:09;17.59;56.45
73112;HTU21D;61301;51.956;5.876;2023-11-19T15:26:35;17.62;56.46
73112;HTU21D;61301;51.956;5.876;2023-11-19T15:29:02;17.60;56.39
73112;HTU21D;61301;51.956;5.876;2023-11-19T15:31:28;17.60;56.45
73112;HTU21D;61301;51.956;5.876;2023-11-19T15:33:55;17.64;56.40
73112;HTU21D;61301;51.956;5.876;2023-11-19T15:36:21;17.63;56.40
73112;HTU21D;61301;51.956;5.876;2023-11-19T15:38:47;17.64;56.40